createdAt,value
2017-12-19T00:02:20.539Z,22.75
2017-12-19T00:04:53.585Z,21.00
2017-12-19T00:07:26.642Z,23.25
2017-12-19T00:09:58.237Z,19.75
2017-12-19T00:12:31.214Z,21.00
2017-12-19T00:15:05.069Z,18.00
2017-12-19T00:17:38.055Z,18.00
2017-12-19T00:20:09.526Z,23.00
2017-12-19T00:22:44.596Z,21.75
2017-12-19T00:25:16.841Z,25.75
2017-12-19T00:27:48.030Z,20.25
2017-12-19T00:30:19.623Z,26.75
2017-12-19T00:32:51.095Z,24.25
2017-12-19T00:35:21.427Z,20.00
2017-12-19T00:37:52.676Z,19.75
2017-12-19T00:40:28.627Z,20.75
2017-12-19T00:43:00.292Z,19.50
2017-12-19T00:45:31.939Z,24.50
2017-12-19T00:48:02.874Z,20.75
2017-12-19T00:50:34.262Z,20.50
2017-12-19T00:55:47.444Z,18.75
2017-12-19T00:58:17.705Z,18.50
2017-12-19T01:00:48.822Z,21.00
2017-12-19T01:03:20.227Z,19.00
2017-12-19T01:05:51.222Z,21.50
2017-12-19T01:08:22.184Z,21.75
2017-12-19T01:10:53.227Z,21.75
2017-12-19T01:13:24.482Z,20.00
2017-12-19T01:15:55.320Z,22.25
2017-12-19T01:18:26.123Z,23.75
2017-12-19T01:20:57.534Z,17.25
2017-12-19T01:23:28.614Z,21.75
2017-12-19T01:25:59.836Z,18.75
2017-12-19T01:28:31.279Z,20.50
2017-12-19T01:31:02.860Z,16.75
2017-12-19T01:33:34.896Z,19.25
2017-12-19T01:36:05.627Z,15.00
2017-12-19T01:38:36.390Z,18.75
2017-12-19T01:41:07.139Z,18.00
2017-12-19T01:43:40.108Z,18.00
2017-12-19T01:48:51.901Z,15.25
2017-12-19T01:51:22.481Z,20.25
2017-12-19T01:53:53.488Z,19.25
2017-12-19T01:56:26.221Z,17.75
2017-12-19T01:58:58.632Z,17.25
2017-12-19T02:01:30.582Z,16.75
2017-12-19T02:04:01.188Z,18.75
2017-12-19T02:06:33.399Z,19.00
2017-12-19T02:09:04.856Z,17.75
2017-12-19T02:11:37.522Z,17.00
2017-12-19T02:14:10.664Z,18.50
2017-12-19T02:16:43.314Z,15.50
2017-12-19T02:19:16.116Z,15.00
2017-12-19T02:21:48.377Z,15.75
2017-12-19T02:24:20.983Z,18.25
2017-12-19T02:26:54.192Z,16.75
2017-12-19T02:29:25.585Z,17.25
2017-12-19T02:31:57.950Z,16.75
2017-12-19T02:34:31.295Z,13.50
2017-12-19T02:37:02.571Z,17.25
2017-12-19T02:39:34.273Z,20.25
2017-12-19T02:42:05.383Z,18.25
2017-12-19T02:44:47.725Z,21.25
2017-12-19T02:47:19.799Z,17.50
2017-12-19T02:49:52.006Z,19.25
2017-12-19T02:52:24.865Z,18.00
2017-12-19T02:54:58.946Z,19.25
2017-12-19T02:57:32.515Z,19.75
2017-12-19T03:00:07.242Z,18.00
2017-12-19T03:02:39.430Z,19.75
2017-12-19T03:05:10.943Z,20.00
2017-12-19T03:07:43.481Z,18.00
2017-12-19T03:10:14.295Z,21.50
2017-12-19T03:12:44.957Z,17.00
2017-12-19T03:15:22.114Z,20.00
2017-12-19T03:17:53.929Z,17.50
2017-12-19T03:20:25.468Z,21.25
2017-12-19T03:22:57.529Z,18.75
2017-12-19T03:25:35.360Z,20.00
2017-12-19T03:28:06.861Z,17.75
2017-12-19T03:30:39.160Z,18.75
2017-12-19T03:33:09.991Z,17.75
2017-12-19T03:35:41.855Z,17.75
2017-12-19T03:38:13.475Z,22.75
2017-12-19T03:40:44.897Z,21.25
2017-12-19T03:43:16.401Z,19.00
2017-12-19T03:45:46.953Z,22.25
2017-12-19T03:48:17.835Z,19.00
2017-12-19T03:50:50.879Z,20.50
2017-12-19T03:53:27.477Z,16.75
2017-12-19T03:55:58.913Z,17.75
2017-12-19T03:58:31.312Z,18.00
2017-12-19T04:01:02.021Z,18.50
2017-12-19T04:03:34.107Z,18.50
2017-12-19T04:06:05.707Z,16.75
2017-12-19T04:08:37.520Z,18.50
2017-12-19T04:11:09.410Z,16.00
2017-12-19T04:13:41.087Z,17.50
2017-12-19T04:16:12.391Z,16.75
2017-12-19T04:18:43.877Z,15.50
2017-12-19T04:21:14.287Z,17.50
2017-12-19T04:23:45.623Z,14.00
2017-12-19T04:26:17.794Z,18.50
2017-12-19T04:28:49.724Z,17.50
2017-12-19T04:31:22.478Z,16.75
2017-12-19T04:33:53.416Z,14.50
2017-12-19T04:36:25.574Z,17.25
2017-12-19T04:38:56.738Z,19.00
2017-12-19T04:41:30.608Z,14.00
2017-12-19T04:44:03.616Z,21.00
2017-12-19T04:46:35.317Z,18.00
2017-12-19T04:49:06.550Z,16.00
2017-12-19T04:51:38.089Z,14.00
2017-12-19T04:54:08.956Z,12.75
2017-12-19T04:56:44.765Z,16.00
2017-12-19T04:59:16.099Z,17.25
2017-12-19T05:01:47.345Z,18.75
2017-12-19T05:04:20.101Z,18.75
2017-12-19T05:06:51.525Z,20.75
2017-12-19T05:09:23.045Z,24.50
2017-12-19T05:11:54.717Z,25.75
2017-12-19T05:14:26.780Z,27.75
2017-12-19T05:16:58.957Z,25.00
2017-12-19T05:19:29.386Z,19.75
2017-12-19T05:22:00.520Z,29.25
2017-12-19T05:24:39.051Z,25.25
2017-12-19T05:27:09.560Z,22.50
2017-12-19T05:29:40.005Z,21.00
2017-12-19T05:32:13.376Z,19.75
2017-12-19T05:34:44.206Z,20.50
2017-12-19T05:37:15.842Z,18.25
2017-12-19T05:39:47.473Z,16.00
2017-12-19T05:42:18.586Z,19.25
2017-12-19T05:44:49.281Z,18.00
2017-12-19T05:47:21.380Z,16.75
2017-12-19T05:49:52.434Z,21.75
2017-12-19T05:52:23.790Z,16.00
2017-12-19T05:54:54.626Z,16.00
2017-12-19T05:57:25.540Z,19.50
2017-12-19T05:59:57.082Z,16.25
2017-12-19T06:02:29.329Z,21.75
2017-12-19T06:05:00.186Z,20.50
2017-12-19T06:07:32.192Z,18.25
2017-12-19T06:10:03.601Z,17.75
2017-12-19T06:12:34.520Z,16.25
2017-12-19T06:15:08.683Z,18.25
2017-12-19T06:17:39.694Z,15.50
2017-12-19T06:20:11.684Z,18.25
2017-12-19T06:22:44.637Z,21.00
2017-12-19T06:25:19.256Z,18.50
2017-12-19T06:27:52.382Z,18.75
2017-12-19T06:30:24.039Z,18.00
2017-12-19T06:32:54.772Z,20.75
2017-12-19T06:35:27.256Z,17.75
2017-12-19T06:37:57.425Z,17.25
2017-12-19T06:40:30.242Z,19.00
2017-12-19T06:43:00.981Z,17.75
2017-12-19T06:45:32.028Z,20.75
2017-12-19T06:48:16.713Z,19.25
2017-12-19T06:50:47.129Z,20.00
2017-12-19T06:53:17.500Z,21.75
2017-12-19T06:55:48.834Z,26.75
2017-12-19T06:58:19.440Z,21.25
2017-12-19T07:00:49.858Z,20.75
2017-12-19T07:03:23.298Z,22.25
2017-12-19T07:05:55.553Z,20.75
2017-12-19T07:08:25.906Z,27.25
2017-12-19T07:10:56.985Z,23.50
2017-12-19T07:13:27.850Z,28.25
2017-12-19T07:15:58.710Z,19.75
2017-12-19T07:18:32.131Z,24.00
2017-12-19T07:21:03.391Z,20.50
2017-12-19T07:23:35.260Z,21.00
2017-12-19T07:26:05.625Z,19.25
2017-12-19T07:28:37.997Z,20.25
2017-12-19T07:31:08.883Z,20.25
2017-12-19T07:33:39.650Z,23.50
2017-12-19T07:36:09.938Z,18.25
2017-12-19T07:38:40.576Z,19.50
2017-12-19T07:41:12.403Z,17.75
2017-12-19T07:43:44.835Z,16.00
2017-12-19T07:46:15.401Z,16.75
2017-12-19T07:48:46.641Z,18.75
2017-12-19T07:51:17.335Z,16.75
2017-12-19T07:53:47.704Z,19.75
2017-12-19T07:56:24.083Z,26.50
2017-12-19T07:58:54.368Z,21.50
2017-12-19T08:01:25.249Z,22.75
2017-12-19T08:03:58.138Z,22.75
2017-12-19T08:06:28.986Z,19.50
2017-12-19T08:08:59.751Z,19.25
2017-12-19T08:11:31.933Z,18.75
2017-12-19T08:14:03.458Z,19.00
2017-12-19T08:16:50.049Z,21.50
2017-12-19T08:19:22.112Z,20.75
2017-12-19T08:21:52.397Z,19.75
2017-12-19T08:24:23.539Z,19.25
2017-12-19T08:26:57.507Z,20.00
2017-12-19T08:32:12.407Z,21.25
2017-12-19T08:34:43.011Z,24.00
2017-12-19T08:37:14.091Z,17.00
2017-12-19T08:39:52.593Z,17.50
2017-12-19T08:42:31.639Z,15.75
2017-12-19T08:45:05.284Z,17.75
2017-12-19T08:47:37.849Z,19.75
2017-12-19T08:50:08.361Z,20.25
2017-12-19T08:52:41.674Z,19.75
2017-12-19T08:55:13.376Z,21.50
2017-12-19T08:57:44.475Z,20.75
2017-12-19T09:00:22.165Z,22.00
2017-12-19T09:02:54.367Z,21.50
2017-12-19T09:05:27.237Z,22.50
2017-12-19T09:08:02.403Z,20.00
2017-12-19T09:10:35.855Z,24.50
2017-12-19T09:13:07.347Z,19.75
2017-12-19T09:15:43.263Z,15.25
2017-12-19T09:18:16.234Z,21.25
2017-12-19T09:20:47.450Z,23.75
2017-12-19T09:23:18.408Z,18.00
2017-12-19T09:25:49.425Z,21.00
2017-12-19T09:28:21.088Z,19.25
2017-12-19T09:30:51.769Z,20.25
2017-12-19T09:33:22.995Z,18.25
2017-12-19T09:35:54.072Z,19.00
2017-12-19T09:38:25.138Z,22.00
2017-12-19T09:40:55.695Z,22.00
2017-12-19T09:43:26.922Z,26.25
2017-12-19T09:45:57.944Z,22.75
2017-12-19T09:48:28.837Z,21.00
2017-12-19T09:51:00.925Z,23.25
2017-12-19T09:53:33.358Z,22.00
2017-12-19T09:56:07.377Z,26.25
2017-12-19T09:58:45.141Z,25.50
2017-12-19T10:01:16.891Z,25.50
2017-12-19T10:03:48.039Z,24.25
2017-12-19T10:06:23.489Z,20.75
2017-12-19T10:08:54.839Z,20.25
2017-12-19T10:11:25.696Z,18.25
2017-12-19T10:14:05.544Z,25.75
2017-12-19T10:16:38.325Z,18.75
2017-12-19T10:19:10.377Z,21.50
2017-12-19T10:21:42.260Z,24.50
2017-12-19T10:24:13.037Z,25.50
2017-12-19T10:26:43.622Z,21.00
2017-12-19T10:29:15.136Z,23.75
2017-12-19T10:31:47.437Z,18.50
2017-12-19T10:34:20.165Z,23.75
2017-12-19T10:36:50.997Z,23.75
2017-12-19T10:39:22.837Z,24.75
2017-12-19T10:41:53.591Z,22.25
2017-12-19T10:44:25.692Z,20.75
2017-12-19T10:46:59.603Z,20.25
2017-12-19T10:49:31.352Z,27.50
2017-12-19T10:52:03.723Z,20.00
2017-12-19T10:54:34.415Z,20.75
2017-12-19T10:57:04.991Z,24.75
2017-12-19T10:59:42.988Z,19.75
2017-12-19T11:02:14.442Z,25.00
2017-12-19T11:04:47.330Z,29.75
2017-12-19T11:07:19.575Z,31.00
2017-12-19T11:09:50.855Z,27.00
2017-12-19T11:12:22.960Z,28.25
2017-12-19T11:14:54.638Z,22.50
2017-12-19T11:17:38.152Z,26.75
2017-12-19T11:20:10.488Z,28.50
2017-12-19T11:22:44.128Z,24.25
2017-12-19T11:25:19.424Z,24.25
2017-12-19T11:27:57.873Z,22.50
2017-12-19T11:30:34.296Z,19.25
2017-12-19T11:33:17.969Z,21.75
2017-12-19T11:35:51.184Z,24.25
2017-12-19T11:38:31.421Z,24.00
2017-12-19T11:41:06.633Z,24.75
2017-12-19T11:43:43.152Z,21.75
2017-12-19T11:46:19.585Z,20.75
2017-12-19T11:48:54.731Z,21.50
2017-12-19T11:51:34.519Z,26.75
2017-12-19T11:54:12.091Z,22.50
2017-12-19T11:56:46.886Z,20.50
2017-12-19T11:59:24.490Z,22.25
2017-12-19T12:02:01.880Z,24.50
2017-12-19T12:04:40.970Z,27.25
2017-12-19T12:07:15.716Z,27.75
2017-12-19T12:09:51.180Z,30.00
2017-12-19T12:12:29.359Z,23.50
2017-12-19T12:15:18.044Z,21.50
2017-12-19T12:20:50.970Z,27.25
2017-12-19T12:23:33.664Z,22.75
2017-12-19T12:26:11.682Z,28.00
2017-12-19T12:28:51.197Z,30.25
2017-12-19T12:31:33.514Z,29.50
2017-12-19T12:34:11.782Z,23.25
2017-12-19T12:37:03.224Z,27.75
2017-12-19T12:39:47.249Z,19.75
2017-12-19T12:42:25.825Z,23.75
2017-12-19T12:45:07.985Z,25.75
2017-12-19T12:47:42.633Z,23.25
2017-12-19T12:50:14.706Z,23.75
2017-12-19T12:52:50.091Z,22.25
2017-12-19T12:55:21.728Z,17.75
2017-12-19T12:57:54.470Z,24.00
2017-12-19T13:00:28.614Z,20.50
2017-12-19T13:03:03.273Z,23.00
2017-12-19T13:05:38.432Z,25.25
2017-12-19T13:08:17.113Z,23.75
2017-12-19T13:10:51.075Z,26.00
2017-12-19T13:13:22.272Z,22.75
2017-12-19T13:15:58.529Z,23.50
2017-12-19T13:18:32.185Z,24.25
2017-12-19T13:21:05.647Z,24.25
2017-12-19T13:23:41.364Z,26.50
2017-12-19T13:26:19.192Z,28.00
2017-12-19T13:28:58.846Z,27.00
2017-12-19T13:31:38.236Z,21.25
2017-12-19T13:34:12.304Z,23.50
2017-12-19T13:36:52.370Z,28.25
2017-12-19T13:39:28.396Z,26.50
2017-12-19T13:42:02.109Z,26.75
2017-12-19T13:44:35.532Z,24.75
2017-12-19T13:47:09.443Z,21.25
2017-12-19T13:49:45.021Z,24.00
2017-12-19T13:52:17.483Z,24.00
2017-12-19T13:54:49.923Z,25.75
2017-12-19T13:57:21.834Z,21.25
2017-12-19T13:59:53.781Z,26.00
2017-12-19T14:02:26.129Z,18.25
2017-12-19T14:04:57.763Z,24.75
2017-12-19T14:07:30.345Z,27.25
2017-12-19T14:10:02.448Z,23.75
2017-12-19T14:12:34.316Z,25.50
2017-12-19T14:15:15.051Z,25.00
2017-12-19T14:17:57.775Z,26.00
2017-12-19T14:20:29.918Z,23.75
2017-12-19T14:23:02.105Z,25.75
2017-12-19T14:25:33.397Z,21.75
2017-12-19T14:28:05.742Z,21.00
2017-12-19T14:30:39.794Z,24.75
2017-12-19T14:33:12.038Z,26.75
2017-12-19T14:35:44.237Z,24.25
2017-12-19T14:38:15.446Z,23.75
2017-12-19T14:40:47.534Z,26.75
2017-12-19T14:43:28.635Z,25.75
2017-12-19T14:46:01.870Z,24.00
2017-12-19T14:48:35.794Z,24.25
2017-12-19T14:51:09.593Z,24.50
2017-12-19T14:53:42.457Z,23.75
2017-12-19T14:56:14.754Z,23.50
2017-12-19T14:58:46.539Z,27.25
2017-12-19T15:01:18.916Z,26.75
2017-12-19T15:03:49.883Z,21.75
2017-12-19T15:06:22.653Z,29.75
2017-12-19T15:08:54.940Z,25.75
2017-12-19T15:11:27.395Z,27.25
2017-12-19T15:14:00.140Z,25.75
2017-12-19T15:16:33.269Z,25.50
2017-12-19T15:19:04.261Z,23.75
2017-12-19T15:21:35.587Z,24.25
2017-12-19T15:24:07.190Z,25.50
2017-12-19T15:26:40.277Z,25.25
2017-12-19T15:29:11.726Z,24.50
2017-12-19T15:31:43.509Z,19.75
2017-12-19T15:34:17.785Z,22.00
2017-12-19T15:36:50.814Z,24.50
2017-12-19T15:39:24.071Z,26.00
2017-12-19T15:41:57.056Z,21.00
2017-12-19T15:44:34.130Z,27.00
2017-12-19T15:47:09.333Z,23.75
2017-12-19T15:49:43.191Z,23.25
2017-12-19T15:52:17.737Z,18.75
2017-12-19T15:54:49.985Z,23.25
2017-12-19T15:57:22.173Z,20.25
2017-12-19T16:00:00.491Z,21.75
2017-12-19T16:02:38.253Z,24.00
2017-12-19T16:05:10.496Z,20.50
2017-12-19T16:07:41.581Z,20.00
2017-12-19T16:10:15.648Z,25.75
2017-12-19T16:12:49.230Z,27.00
2017-12-19T16:15:22.168Z,21.50
2017-12-19T16:17:54.586Z,23.75
2017-12-19T16:20:27.452Z,20.50
2017-12-19T16:23:10.750Z,23.50
2017-12-19T16:25:44.725Z,18.75
2017-12-19T16:28:19.407Z,17.25
2017-12-19T16:30:54.119Z,18.00
2017-12-19T16:33:29.826Z,21.50
2017-12-19T16:36:10.204Z,22.25
2017-12-19T16:38:44.927Z,22.75
2017-12-19T16:41:37.293Z,20.75
2017-12-19T16:44:10.156Z,20.50
2017-12-19T16:46:43.258Z,20.50
2017-12-19T16:49:17.282Z,23.00
2017-12-19T16:51:52.822Z,23.50
2017-12-19T16:54:47.512Z,23.50
2017-12-19T16:57:21.267Z,27.75
2017-12-19T16:59:56.734Z,30.75
2017-12-19T17:02:31.148Z,21.25
2017-12-19T17:05:02.320Z,24.50
2017-12-19T17:10:04.393Z,23.00
2017-12-19T17:12:35.615Z,28.25
2017-12-19T17:15:09.683Z,29.75
2017-12-19T17:17:45.724Z,30.25
2017-12-19T17:20:20.419Z,30.25
2017-12-19T17:22:51.919Z,30.75
2017-12-19T17:25:23.386Z,23.25
2017-12-19T17:27:55.625Z,24.75
2017-12-19T17:30:27.508Z,22.25
2017-12-19T17:33:02.660Z,23.00
2017-12-19T17:35:34.899Z,21.50
2017-12-19T17:38:10.166Z,25.50
2017-12-19T17:40:43.947Z,23.50
2017-12-19T17:43:20.818Z,22.25
2017-12-19T17:45:52.794Z,24.00
2017-12-19T17:48:27.746Z,27.75
2017-12-19T17:50:59.696Z,26.00
2017-12-19T17:53:31.714Z,26.00
2017-12-19T17:56:03.587Z,26.25
2017-12-19T17:58:38.494Z,25.25
2017-12-19T18:01:09.348Z,22.75
2017-12-19T18:03:41.429Z,24.00
2017-12-19T18:06:13.468Z,22.50
2017-12-19T18:08:44.965Z,21.75
2017-12-19T18:11:16.965Z,18.25
2017-12-19T18:13:49.342Z,21.25
2017-12-19T18:16:24.299Z,18.25
2017-12-19T18:18:58.688Z,18.25
2017-12-19T18:21:31.260Z,18.75
2017-12-19T18:24:03.156Z,21.75
2017-12-19T18:26:35.127Z,19.50
2017-12-19T18:29:08.980Z,20.75
2017-12-19T18:31:48.497Z,19.50
2017-12-19T18:34:21.151Z,16.75
2017-12-19T18:36:54.567Z,21.25
2017-12-19T18:39:28.265Z,21.00
2017-12-19T18:41:59.632Z,23.25
2017-12-19T18:44:33.998Z,20.00
2017-12-19T18:47:09.003Z,22.25
2017-12-19T18:49:47.794Z,19.75
2017-12-19T18:52:20.116Z,21.50
2017-12-19T18:54:52.190Z,21.75
2017-12-19T18:57:24.001Z,21.25
2017-12-19T18:59:54.453Z,21.75
2017-12-19T19:02:25.520Z,23.50
2017-12-19T19:04:57.130Z,24.75
2017-12-19T19:07:30.699Z,21.75
2017-12-19T19:10:01.190Z,26.00
2017-12-19T19:12:34.388Z,20.00
2017-12-19T19:15:14.370Z,20.50
2017-12-19T19:17:44.901Z,21.25
2017-12-19T19:20:16.003Z,22.25
2017-12-19T19:22:46.274Z,20.25
2017-12-19T19:25:16.892Z,21.75
2017-12-19T19:27:47.896Z,21.00
2017-12-19T19:30:18.663Z,19.00
2017-12-19T19:33:19.772Z,18.50
2017-12-19T19:35:53.163Z,22.25
2017-12-19T19:38:23.461Z,22.00
2017-12-19T19:40:54.451Z,22.50
2017-12-19T19:43:25.428Z,17.25
2017-12-19T19:48:34.068Z,16.75
2017-12-19T19:51:08.678Z,24.50
2017-12-19T19:53:40.294Z,22.25
2017-12-19T19:56:11.756Z,18.25
2017-12-19T19:58:42.028Z,28.75
2017-12-19T20:01:12.650Z,28.00
2017-12-19T20:03:43.004Z,32.00
2017-12-19T20:06:13.246Z,30.25
2017-12-19T20:08:44.464Z,29.75
2017-12-19T20:11:15.484Z,26.00
2017-12-19T20:13:45.995Z,30.75
2017-12-19T20:16:16.683Z,25.00
2017-12-19T20:18:47.781Z,31.75
2017-12-19T20:21:18.926Z,27.25
2017-12-19T20:23:49.982Z,24.50
2017-12-19T20:26:20.288Z,19.25
2017-12-19T20:28:51.423Z,20.00
2017-12-19T20:31:22.482Z,25.50
2017-12-19T20:33:56.786Z,21.00
2017-12-19T20:36:28.644Z,24.00
2017-12-19T20:39:03.327Z,23.00
2017-12-19T20:41:35.049Z,22.00
2017-12-19T20:44:17.972Z,27.00
2017-12-19T20:46:50.061Z,21.75
2017-12-19T20:49:20.799Z,24.25
2017-12-19T20:51:51.071Z,31.25
2017-12-19T20:54:21.447Z,21.25
2017-12-19T20:56:53.416Z,22.75
2017-12-19T20:59:24.184Z,26.25
2017-12-19T21:01:55.464Z,25.25
2017-12-19T21:04:26.826Z,26.75
2017-12-19T21:06:57.411Z,22.25
2017-12-19T21:09:28.296Z,22.25
2017-12-19T21:11:59.303Z,33.75
2017-12-19T21:14:30.372Z,26.25
2017-12-19T21:17:01.729Z,28.75
2017-12-19T21:19:32.797Z,29.50
2017-12-19T21:22:03.907Z,30.75
2017-12-19T21:24:38.765Z,31.25
2017-12-19T21:27:09.354Z,31.75
2017-12-19T21:29:40.909Z,26.25
2017-12-19T21:32:14.558Z,27.75
2017-12-19T21:34:45.439Z,31.25
2017-12-19T21:37:16.676Z,31.50
2017-12-19T21:39:47.063Z,28.25
2017-12-19T21:42:17.876Z,29.50
2017-12-19T21:44:48.288Z,31.75
2017-12-19T21:47:23.831Z,30.75
2017-12-19T21:49:55.979Z,26.25
2017-12-19T21:52:26.812Z,30.00
2017-12-19T21:54:57.352Z,26.75
2017-12-19T21:57:28.510Z,26.75
2017-12-19T21:59:58.850Z,31.25
2017-12-19T22:02:30.019Z,31.50
2017-12-19T22:05:01.649Z,30.00
2017-12-19T22:07:31.946Z,29.50
2017-12-19T22:10:02.925Z,21.50
2017-12-19T22:12:35.690Z,29.25
2017-12-19T22:15:07.302Z,26.75
2017-12-19T22:17:38.167Z,25.00
2017-12-19T22:20:09.385Z,30.25
2017-12-19T22:22:41.051Z,31.75
2017-12-19T22:25:11.799Z,29.75
2017-12-19T22:27:48.911Z,24.75
2017-12-19T22:30:19.394Z,28.25
2017-12-19T22:32:49.859Z,23.25
2017-12-19T22:35:20.303Z,23.75
2017-12-19T22:37:51.764Z,25.00
2017-12-19T22:40:22.431Z,23.75
2017-12-19T22:42:52.875Z,23.75
2017-12-19T22:45:24.532Z,27.25
2017-12-19T22:47:57.395Z,21.50
2017-12-19T22:50:27.797Z,24.25
2017-12-19T22:52:59.841Z,22.00
2017-12-19T22:55:31.584Z,25.00
2017-12-19T22:58:03.934Z,23.75
2017-12-19T23:00:36.365Z,22.00
2017-12-19T23:03:07.184Z,25.75
2017-12-19T23:05:37.537Z,25.50
2017-12-19T23:08:16.774Z,24.50
2017-12-19T23:10:47.102Z,23.75
2017-12-19T23:13:17.294Z,23.75
2017-12-19T23:15:47.945Z,23.00
2017-12-19T23:18:18.252Z,28.00
2017-12-19T23:20:49.649Z,22.75
2017-12-19T23:23:20.646Z,28.25
2017-12-19T23:25:51.329Z,29.00
2017-12-19T23:28:21.806Z,23.75
2017-12-19T23:30:52.606Z,23.25
2017-12-19T23:33:23.143Z,30.25
2017-12-19T23:35:53.684Z,29.25
2017-12-19T23:38:24.467Z,28.00
2017-12-19T23:40:54.992Z,31.75
2017-12-19T23:43:25.544Z,30.50
2017-12-19T23:45:56.342Z,27.75
2017-12-19T23:48:27.431Z,26.75
2017-12-19T23:50:58.153Z,28.75
2017-12-19T23:53:28.704Z,30.25
2017-12-19T23:55:59.193Z,28.00
2017-12-19T23:58:30.726Z,30.75
